createdAt,value
2019-03-06T00:00:36.004Z,5.43
2019-03-06T00:01:35.979Z,5.42
2019-03-06T00:02:35.969Z,5.40
2019-03-06T00:03:35.982Z,5.46
2019-03-06T00:04:35.962Z,5.49
2019-03-06T00:05:35.974Z,5.43
2019-03-06T00:06:35.934Z,5.46
2019-03-06T00:07:35.919Z,5.56
2019-03-06T00:08:35.928Z,5.49
2019-03-06T00:09:35.920Z,5.48
2019-03-06T00:10:35.881Z,5.49
2019-03-06T00:11:35.871Z,5.46
2019-03-06T00:12:35.870Z,5.54
2019-03-06T00:13:35.848Z,5.54
2019-03-06T00:14:35.860Z,5.53
2019-03-06T00:15:35.825Z,5.60
2019-03-06T00:16:35.822Z,5.46
2019-03-06T00:17:35.807Z,5.53
2019-03-06T00:18:35.801Z,5.56
2019-03-06T00:19:35.810Z,5.64
2019-03-06T00:20:35.777Z,5.64
2019-03-06T00:21:35.770Z,5.65
2019-03-06T00:22:35.748Z,5.60
2019-03-06T00:23:35.741Z,5.60
2019-03-06T00:24:35.743Z,5.63
2019-03-06T00:25:35.721Z,5.63
2019-03-06T00:26:35.711Z,5.65
2019-03-06T00:27:35.703Z,5.65
2019-03-06T00:28:35.683Z,5.63
2019-03-06T00:29:35.690Z,5.68
2019-03-06T00:30:35.660Z,5.67
2019-03-06T00:31:35.650Z,5.64
2019-03-06T00:32:35.651Z,5.71
2019-03-06T00:33:35.629Z,5.74
2019-03-06T00:34:35.634Z,5.72
2019-03-06T00:35:35.614Z,5.78
2019-03-06T00:36:35.615Z,5.74
2019-03-06T00:37:35.592Z,5.71
2019-03-06T00:38:35.585Z,5.74
2019-03-06T00:39:35.592Z,5.74
2019-03-06T00:40:35.555Z,5.75
2019-03-06T00:41:35.548Z,5.82
2019-03-06T00:42:35.538Z,5.91
2019-03-06T00:43:35.539Z,5.91
2019-03-06T00:44:35.518Z,5.83
2019-03-06T00:45:35.518Z,5.89
2019-03-06T00:46:35.502Z,5.83
2019-03-06T00:47:35.488Z,5.82
2019-03-06T00:48:35.467Z,5.86
2019-03-06T00:49:36.212Z,5.89
2019-03-06T00:50:35.475Z,5.91
2019-03-06T00:51:35.435Z,5.91
2019-03-06T00:52:35.424Z,5.86
2019-03-06T00:53:35.419Z,5.93
2019-03-06T00:54:35.401Z,5.90
2019-03-06T00:55:35.406Z,5.97
2019-03-06T00:56:35.380Z,5.93
2019-03-06T00:57:35.383Z,5.94
2019-03-06T00:58:35.361Z,5.91
2019-03-06T00:59:35.355Z,5.99
2019-03-06T01:00:35.355Z,6.01
2019-03-06T01:01:35.345Z,5.99
2019-03-06T01:02:35.317Z,6.04
2019-03-06T01:03:35.304Z,5.97
2019-03-06T01:04:35.307Z,5.96
2019-03-06T01:05:35.280Z,5.99
2019-03-06T01:06:35.288Z,5.90
2019-03-06T01:07:35.281Z,5.90
2019-03-06T01:08:35.251Z,5.86
2019-03-06T01:09:35.242Z,5.86
2019-03-06T01:10:35.262Z,5.90
2019-03-06T01:11:35.216Z,5.90
2019-03-06T01:12:35.206Z,5.90
2019-03-06T01:13:35.195Z,5.94
2019-03-06T01:14:35.182Z,5.91
2019-03-06T01:15:35.181Z,5.90
2019-03-06T01:16:35.186Z,5.97
2019-03-06T01:17:35.149Z,5.94
2019-03-06T01:18:35.139Z,5.94
2019-03-06T01:19:35.127Z,5.94
2019-03-06T01:20:35.129Z,5.96
2019-03-06T01:21:35.129Z,5.96
2019-03-06T01:22:35.092Z,5.94
2019-03-06T01:23:35.102Z,6.00
2019-03-06T01:24:35.069Z,5.99
2019-03-06T01:25:35.069Z,5.91
2019-03-06T01:26:35.067Z,5.93
2019-03-06T01:27:35.041Z,5.93
2019-03-06T01:28:35.028Z,5.99
2019-03-06T01:29:35.022Z,6.00
2019-03-06T01:30:35.006Z,6.03
2019-03-06T01:31:35.020Z,5.99
2019-03-06T01:32:34.999Z,6.06
2019-03-06T01:33:34.973Z,6.03
2019-03-06T01:34:34.972Z,6.00
2019-03-06T01:35:34.966Z,6.08
2019-03-06T01:36:34.966Z,6.08
2019-03-06T01:37:34.932Z,6.06
2019-03-06T01:38:34.924Z,6.09
2019-03-06T01:39:34.909Z,6.12
2019-03-06T01:40:34.898Z,6.12
2019-03-06T01:41:34.896Z,6.12
2019-03-06T01:42:34.912Z,6.17
2019-03-06T01:43:34.868Z,6.08
2019-03-06T01:44:34.855Z,6.17
2019-03-06T01:45:34.844Z,6.21
2019-03-06T01:46:34.834Z,6.19
2019-03-06T01:47:34.839Z,6.17
2019-03-06T01:48:34.810Z,6.18
2019-03-06T01:49:34.809Z,6.19
2019-03-06T01:50:34.789Z,6.21
2019-03-06T01:51:34.776Z,6.18
2019-03-06T01:52:34.784Z,6.25
2019-03-06T01:53:34.755Z,6.18
2019-03-06T01:54:34.744Z,6.22
2019-03-06T01:55:34.739Z,6.12
2019-03-06T01:56:34.718Z,6.27
2019-03-06T01:57:34.726Z,6.18
2019-03-06T01:58:34.701Z,6.15
2019-03-06T01:59:34.688Z,6.34
2019-03-06T02:00:34.679Z,6.22
2019-03-06T02:01:34.675Z,6.21
2019-03-06T02:02:34.678Z,6.30
2019-03-06T02:03:34.648Z,6.31
2019-03-06T02:04:34.634Z,6.31
2019-03-06T02:05:34.621Z,6.36
2019-03-06T02:06:34.619Z,6.34
2019-03-06T02:07:34.637Z,6.38
2019-03-06T02:08:34.588Z,6.37
2019-03-06T02:09:34.579Z,6.40
2019-03-06T02:10:34.575Z,6.38
2019-03-06T02:11:34.571Z,6.38
2019-03-06T02:12:34.566Z,6.40
2019-03-06T02:13:34.547Z,6.36
2019-03-06T02:14:34.523Z,6.31
2019-03-06T02:15:34.511Z,6.38
2019-03-06T02:16:34.501Z,6.40
2019-03-06T02:17:34.497Z,6.34
2019-03-06T02:18:34.496Z,6.41
2019-03-06T02:19:34.494Z,6.38
2019-03-06T02:20:34.456Z,6.40
2019-03-06T02:21:34.443Z,6.34
2019-03-06T02:22:34.439Z,6.37
2019-03-06T02:23:34.442Z,6.44
2019-03-06T02:24:34.419Z,6.43
2019-03-06T02:25:34.410Z,6.38
2019-03-06T02:26:34.392Z,6.37
2019-03-06T02:27:34.379Z,6.38
2019-03-06T02:28:34.386Z,6.38
2019-03-06T02:29:34.362Z,6.36
2019-03-06T02:30:34.357Z,6.38
2019-03-06T02:31:34.343Z,6.34
2019-03-06T02:32:34.327Z,6.43
2019-03-06T02:33:34.336Z,6.36
2019-03-06T02:34:34.306Z,6.40
2019-03-06T02:35:34.311Z,6.38
2019-03-06T02:36:34.295Z,6.43
2019-03-06T02:37:34.284Z,6.33
2019-03-06T02:38:34.277Z,6.33
2019-03-06T02:39:34.261Z,6.41
2019-03-06T02:40:34.238Z,6.37
2019-03-06T02:41:34.234Z,6.37
2019-03-06T02:42:34.219Z,6.37
2019-03-06T02:43:34.243Z,6.36
2019-03-06T02:44:34.192Z,6.33
2019-03-06T02:45:34.194Z,6.43
2019-03-06T02:46:34.174Z,6.43
2019-03-06T02:47:34.163Z,6.37
2019-03-06T02:48:34.153Z,6.37
2019-03-06T02:49:34.166Z,6.43
2019-03-06T02:50:34.131Z,6.37
2019-03-06T02:51:34.121Z,6.43
2019-03-06T02:52:34.110Z,6.44
2019-03-06T02:53:34.097Z,6.51
2019-03-06T02:54:34.099Z,6.40
2019-03-06T02:55:34.106Z,6.38
2019-03-06T02:56:34.072Z,6.51
2019-03-06T02:57:34.050Z,6.48
2019-03-06T02:58:34.044Z,6.38
2019-03-06T02:59:34.027Z,6.38
2019-03-06T03:00:34.033Z,6.40
2019-03-06T03:01:34.012Z,6.40
2019-03-06T03:02:33.996Z,6.40
2019-03-06T03:03:33.985Z,6.41
2019-03-06T03:04:34.006Z,6.46
2019-03-06T03:05:33.973Z,6.41
2019-03-06T03:06:33.970Z,6.40
2019-03-06T03:07:33.947Z,6.37
2019-03-06T03:08:33.931Z,6.44
2019-03-06T03:09:33.933Z,6.38
2019-03-06T03:10:33.930Z,6.40
2019-03-06T03:11:33.898Z,6.40
2019-03-06T03:12:33.889Z,6.38
2019-03-06T03:13:33.896Z,6.38
2019-03-06T03:14:33.879Z,6.44
2019-03-06T03:15:33.856Z,6.40
2019-03-06T03:16:33.862Z,6.41
2019-03-06T03:17:33.844Z,6.38
2019-03-06T03:18:33.819Z,6.36
2019-03-06T03:19:33.814Z,6.40
2019-03-06T03:20:33.819Z,6.37
2019-03-06T03:21:33.793Z,6.41
2019-03-06T03:22:33.778Z,6.43
2019-03-06T03:23:33.772Z,6.31
2019-03-06T03:24:33.751Z,6.37
2019-03-06T03:25:33.761Z,6.33
2019-03-06T03:26:33.738Z,6.31
2019-03-06T03:27:33.721Z,6.30
2019-03-06T03:28:33.711Z,6.31
2019-03-06T03:29:33.701Z,6.25
2019-03-06T03:30:33.687Z,6.27
2019-03-06T03:31:33.692Z,6.25
2019-03-06T03:32:33.701Z,6.21
2019-03-06T03:33:33.654Z,6.17
2019-03-06T03:34:33.661Z,6.17
2019-03-06T03:35:33.661Z,6.19
2019-03-06T03:36:33.620Z,6.11
2019-03-06T03:37:33.613Z,6.06
2019-03-06T03:38:33.614Z,6.04
2019-03-06T03:39:33.588Z,6.06
2019-03-06T03:40:33.580Z,6.09
2019-03-06T03:41:33.585Z,6.12
2019-03-06T03:42:33.555Z,6.08
2019-03-06T03:43:33.547Z,6.09
2019-03-06T03:44:33.542Z,6.06
2019-03-06T03:45:33.525Z,6.08
2019-03-06T03:46:33.527Z,6.08
2019-03-06T03:47:33.502Z,6.09
2019-03-06T03:48:33.495Z,6.09
2019-03-06T03:49:33.478Z,6.14
2019-03-06T03:50:33.476Z,6.12
2019-03-06T03:51:33.473Z,6.17
2019-03-06T03:52:33.446Z,6.06
2019-03-06T03:53:33.439Z,6.08
2019-03-06T03:54:33.424Z,6.08
2019-03-06T03:55:33.412Z,6.04
2019-03-06T03:56:33.425Z,6.04
2019-03-06T03:57:33.394Z,6.09
2019-03-06T03:58:33.385Z,6.01
2019-03-06T03:59:33.369Z,6.01
2019-03-06T04:00:33.424Z,5.94
2019-03-06T04:01:33.374Z,5.99
2019-03-06T04:02:33.348Z,5.94
2019-03-06T04:03:33.324Z,5.94
2019-03-06T04:04:33.320Z,5.94
2019-03-06T04:05:33.311Z,5.99
2019-03-06T04:06:33.320Z,5.96
2019-03-06T04:07:33.291Z,5.91
2019-03-06T04:08:33.290Z,5.93
2019-03-06T04:09:33.263Z,5.96
2019-03-06T04:10:33.250Z,6.03
2019-03-06T04:11:33.241Z,6.04
2019-03-06T04:12:34.327Z,6.01
2019-03-06T04:13:33.218Z,5.94
2019-03-06T04:14:33.218Z,6.00
2019-03-06T04:15:33.195Z,6.03
2019-03-06T04:16:33.190Z,6.01
2019-03-06T04:17:33.195Z,5.96
2019-03-06T04:18:33.165Z,5.97
2019-03-06T04:19:33.151Z,5.86
2019-03-06T04:20:33.161Z,5.93
2019-03-06T04:21:33.130Z,5.90
2019-03-06T04:22:33.140Z,5.86
2019-03-06T04:23:33.112Z,5.86
2019-03-06T04:24:33.102Z,5.91
2019-03-06T04:25:33.088Z,5.94
2019-03-06T04:26:33.099Z,5.93
2019-03-06T04:27:33.090Z,5.90
2019-03-06T04:28:33.055Z,5.90
2019-03-06T04:29:33.044Z,5.86
2019-03-06T04:30:33.036Z,5.93
2019-03-06T04:31:33.023Z,5.93
2019-03-06T04:32:33.031Z,5.83
2019-03-06T04:33:33.016Z,5.93
2019-03-06T04:34:32.990Z,5.82
2019-03-06T04:35:32.977Z,5.90
2019-03-06T04:36:32.972Z,5.96
2019-03-06T04:37:32.979Z,5.91
2019-03-06T04:38:32.967Z,5.96
2019-03-06T04:39:32.941Z,5.91
2019-03-06T04:40:32.927Z,6.00
2019-03-06T04:41:32.913Z,5.96
2019-03-06T04:42:32.918Z,5.99
2019-03-06T04:43:32.909Z,5.96
2019-03-06T04:44:32.879Z,5.96
2019-03-06T04:45:32.874Z,5.96
2019-03-06T04:46:32.858Z,5.90
2019-03-06T04:47:32.873Z,5.89
2019-03-06T04:48:32.854Z,5.90
2019-03-06T04:49:32.825Z,5.93
2019-03-06T04:50:32.818Z,5.93
2019-03-06T04:51:32.807Z,5.83
2019-03-06T04:52:32.790Z,5.90
2019-03-06T04:53:32.796Z,5.94
2019-03-06T04:54:32.775Z,5.96
2019-03-06T04:55:32.760Z,5.85
2019-03-06T04:56:32.746Z,5.86
2019-03-06T04:57:32.740Z,5.81
2019-03-06T04:58:32.745Z,5.86
2019-03-06T04:59:32.714Z,5.85
2019-03-06T05:00:32.704Z,5.78
2019-03-06T05:01:32.691Z,5.78
2019-03-06T05:02:32.684Z,5.74
2019-03-06T05:03:32.695Z,5.74
2019-03-06T05:04:32.660Z,5.71
2019-03-06T05:05:32.647Z,5.76
2019-03-06T05:06:32.653Z,5.78
2019-03-06T05:07:32.636Z,5.74
2019-03-06T05:08:32.630Z,5.72
2019-03-06T05:09:32.613Z,5.63
2019-03-06T05:10:32.594Z,5.67
2019-03-06T05:11:32.594Z,5.67
2019-03-06T05:12:32.570Z,5.63
2019-03-06T05:13:32.579Z,5.65
2019-03-06T05:14:32.569Z,5.63
2019-03-06T05:15:32.542Z,5.61
2019-03-06T05:16:32.536Z,5.67
2019-03-06T05:17:32.519Z,5.64
2019-03-06T05:18:32.526Z,5.65
2019-03-06T05:19:32.518Z,5.57
2019-03-06T05:20:32.484Z,5.57
2019-03-06T05:21:32.479Z,5.58
2019-03-06T05:22:32.464Z,5.57
2019-03-06T05:23:32.453Z,5.53
2019-03-06T05:24:32.461Z,5.48
2019-03-06T05:25:32.436Z,5.48
2019-03-06T05:26:32.420Z,5.45
2019-03-06T05:27:32.415Z,5.38
2019-03-06T05:28:32.406Z,5.40
2019-03-06T05:29:32.420Z,5.40
2019-03-06T05:30:32.382Z,5.40
2019-03-06T05:31:32.365Z,5.39
2019-03-06T05:32:32.370Z,5.45
2019-03-06T05:33:32.349Z,5.38
2019-03-06T05:34:32.367Z,5.40
2019-03-06T05:35:32.325Z,5.33
2019-03-06T05:36:32.311Z,5.43
2019-03-06T05:37:32.298Z,5.39
2019-03-06T05:38:32.289Z,5.35
2019-03-06T05:39:32.300Z,5.31
2019-03-06T05:40:32.290Z,5.43
2019-03-06T05:41:32.256Z,5.43
2019-03-06T05:42:32.247Z,5.28
2019-03-06T05:43:32.234Z,5.30
2019-03-06T05:44:32.220Z,5.31
2019-03-06T05:45:32.227Z,5.31
2019-03-06T05:46:32.199Z,5.35
2019-03-06T05:47:32.188Z,5.36
2019-03-06T05:48:32.190Z,5.38
2019-03-06T05:49:32.185Z,5.40
2019-03-06T05:50:32.181Z,5.39
2019-03-06T05:51:32.151Z,5.39
2019-03-06T05:52:32.136Z,5.36
2019-03-06T05:53:32.123Z,5.39
2019-03-06T05:54:32.121Z,5.43
2019-03-06T05:55:32.117Z,5.48
2019-03-06T05:56:32.092Z,5.49
2019-03-06T05:57:32.080Z,5.36
2019-03-06T05:58:32.069Z,5.36
2019-03-06T05:59:32.058Z,5.45
2019-03-06T06:00:32.074Z,5.42
2019-03-06T06:01:32.036Z,5.39
2019-03-06T06:02:32.026Z,5.39
2019-03-06T06:03:32.015Z,5.39
2019-03-06T06:04:32.003Z,5.36
2019-03-06T06:05:32.009Z,5.45
2019-03-06T06:06:31.990Z,5.33
2019-03-06T06:07:31.979Z,5.28
2019-03-06T06:08:31.964Z,5.31
2019-03-06T06:09:31.959Z,5.35
2019-03-06T06:10:31.946Z,5.35
2019-03-06T06:11:31.941Z,5.28
2019-03-06T06:12:31.917Z,5.31
2019-03-06T06:13:31.905Z,5.31
2019-03-06T06:14:31.905Z,5.31
2019-03-06T06:15:31.887Z,5.30
2019-03-06T06:16:31.890Z,5.30
2019-03-06T06:17:31.861Z,5.24
2019-03-06T06:18:31.849Z,5.20
2019-03-06T06:19:31.841Z,5.17
2019-03-06T06:20:31.829Z,5.22
2019-03-06T06:21:31.847Z,5.15
2019-03-06T06:22:31.807Z,5.17
2019-03-06T06:23:31.796Z,5.18
2019-03-06T06:24:31.785Z,5.17
2019-03-06T06:25:31.775Z,5.17
2019-03-06T06:26:31.779Z,5.21
2019-03-06T06:27:31.767Z,5.15
2019-03-06T06:28:31.745Z,5.24
2019-03-06T06:29:31.731Z,5.38
2019-03-06T06:30:31.725Z,5.39
2019-03-06T06:31:31.723Z,5.49
2019-03-06T06:32:32.986Z,5.68
2019-03-06T06:33:31.698Z,5.86
2019-03-06T06:34:31.684Z,6.06
2019-03-06T06:35:31.664Z,6.31
2019-03-06T06:36:31.670Z,6.40
2019-03-06T06:37:31.643Z,6.52
2019-03-06T06:38:31.639Z,6.41
2019-03-06T06:39:31.626Z,6.41
2019-03-06T06:40:31.611Z,6.18
2019-03-06T06:41:31.626Z,6.09
2019-03-06T06:42:31.602Z,5.94
2019-03-06T06:43:31.582Z,5.96
2019-03-06T06:44:31.575Z,5.83
2019-03-06T06:45:31.557Z,5.76
2019-03-06T06:46:31.584Z,5.75
2019-03-06T06:47:31.539Z,5.75
2019-03-06T06:48:31.536Z,5.74
2019-03-06T06:49:31.512Z,5.91
2019-03-06T06:50:31.510Z,5.89
2019-03-06T06:51:31.512Z,5.96
2019-03-06T06:52:31.504Z,5.91
2019-03-06T06:53:31.470Z,6.01
2019-03-06T06:54:31.463Z,5.90
2019-03-06T06:55:31.445Z,5.86
2019-03-06T06:56:31.436Z,5.90
2019-03-06T06:57:31.456Z,5.89
2019-03-06T06:58:31.747Z,5.94
2019-03-06T06:59:31.405Z,5.91
2019-03-06T07:00:31.393Z,5.99
2019-03-06T07:01:31.379Z,6.03
2019-03-06T07:02:31.393Z,6.12
2019-03-06T07:03:31.358Z,6.11
2019-03-06T07:04:31.346Z,6.18
2019-03-06T07:05:31.336Z,6.25
2019-03-06T07:06:31.324Z,6.19
2019-03-06T07:07:31.336Z,6.19
2019-03-06T07:08:31.325Z,6.17
2019-03-06T07:09:31.290Z,6.28
2019-03-06T07:10:31.281Z,6.38
2019-03-06T07:11:31.272Z,6.41
2019-03-06T07:12:31.287Z,6.46
2019-03-06T07:13:31.249Z,6.59
2019-03-06T07:14:31.241Z,6.62
2019-03-06T07:15:31.227Z,6.69
2019-03-06T07:16:31.225Z,6.79
2019-03-06T07:17:31.219Z,6.84
2019-03-06T07:18:31.209Z,6.84
2019-03-06T07:19:31.182Z,6.88
2019-03-06T07:20:31.197Z,6.87
2019-03-06T07:21:31.178Z,6.84
2019-03-06T07:22:31.151Z,6.81
2019-03-06T07:23:31.153Z,6.84
2019-03-06T07:24:31.128Z,6.85
2019-03-06T07:25:31.116Z,7.03
2019-03-06T07:26:31.104Z,7.16
2019-03-06T07:27:31.102Z,7.15
2019-03-06T07:28:31.099Z,7.15
2019-03-06T07:29:31.075Z,7.21
2019-03-06T07:30:31.059Z,7.20
2019-03-06T07:31:31.047Z,7.17
2019-03-06T07:32:31.052Z,7.23
2019-03-06T07:33:31.054Z,7.24
2019-03-06T07:34:31.017Z,7.30
2019-03-06T07:35:31.006Z,7.31
2019-03-06T07:36:31.014Z,7.35
2019-03-06T07:37:30.990Z,7.35
2019-03-06T07:38:30.980Z,7.40
2019-03-06T07:39:32.166Z,7.42
2019-03-06T07:40:30.951Z,7.35
2019-03-06T07:41:30.937Z,7.43
2019-03-06T07:42:30.928Z,7.52
2019-03-06T07:43:30.925Z,7.50
2019-03-06T07:44:30.923Z,7.55
2019-03-06T07:45:30.909Z,7.64
2019-03-06T07:46:30.887Z,7.68
2019-03-06T07:47:30.897Z,7.71
2019-03-06T07:48:30.875Z,7.86
2019-03-06T07:49:30.871Z,7.87
2019-03-06T07:50:30.856Z,7.97
2019-03-06T07:51:31.952Z,8.04
2019-03-06T07:52:30.827Z,8.02
2019-03-06T07:53:30.820Z,8.16
2019-03-06T07:54:30.821Z,8.10
2019-03-06T07:55:30.790Z,8.15
2019-03-06T07:56:30.793Z,8.10
2019-03-06T07:57:30.775Z,8.10
2019-03-06T07:58:30.764Z,8.10
2019-03-06T07:59:30.741Z,8.08
2019-03-06T08:00:30.732Z,8.11
2019-03-06T08:01:30.724Z,8.11
2019-03-06T08:02:30.993Z,8.07
2019-03-06T08:03:30.700Z,8.05
2019-03-06T08:04:30.694Z,8.00
2019-03-06T08:05:30.696Z,8.11
2019-03-06T08:06:30.666Z,8.10
2019-03-06T08:07:30.655Z,8.19
2019-03-06T08:08:30.650Z,8.16
2019-03-06T08:09:30.652Z,8.28
2019-03-06T08:10:30.644Z,8.37
2019-03-06T08:11:30.607Z,8.38
2019-03-06T08:12:30.601Z,8.44
2019-03-06T08:13:30.604Z,8.45
2019-03-06T08:14:30.576Z,8.48
2019-03-06T08:15:30.591Z,8.52
2019-03-06T08:16:30.555Z,8.48
2019-03-06T08:17:30.544Z,8.50
2019-03-06T08:18:30.542Z,8.58
2019-03-06T08:19:30.543Z,8.58
2019-03-06T08:20:30.528Z,8.59
2019-03-06T08:21:30.536Z,8.56
2019-03-06T08:22:30.494Z,8.58
2019-03-06T08:23:30.505Z,8.63
2019-03-06T08:24:30.796Z,8.73
2019-03-06T08:25:30.496Z,8.73
2019-03-06T08:26:30.445Z,8.77
2019-03-06T08:27:30.434Z,8.80
2019-03-06T08:28:30.428Z,8.83
2019-03-06T08:29:30.413Z,8.83
2019-03-06T08:30:30.408Z,8.71
2019-03-06T08:31:30.416Z,8.79
2019-03-06T08:32:30.378Z,8.83
2019-03-06T08:33:30.367Z,9.01
2019-03-06T08:34:30.374Z,8.96
2019-03-06T08:35:30.347Z,9.15
2019-03-06T08:36:30.356Z,9.28
2019-03-06T08:37:30.323Z,9.35
2019-03-06T08:38:30.322Z,9.46
2019-03-06T08:39:30.322Z,9.51
2019-03-06T08:40:30.314Z,9.50
2019-03-06T08:41:30.307Z,9.57
2019-03-06T08:42:31.109Z,9.72
2019-03-06T08:43:30.274Z,9.74
2019-03-06T08:44:30.250Z,9.76
2019-03-06T08:45:30.240Z,9.84
2019-03-06T08:46:30.245Z,9.87
2019-03-06T08:47:30.214Z,9.86
2019-03-06T08:48:30.216Z,9.84
2019-03-06T08:49:30.226Z,9.90
2019-03-06T08:50:30.184Z,9.89
2019-03-06T08:51:30.214Z,9.90
2019-03-06T08:52:30.164Z,9.99
2019-03-06T08:53:30.193Z,10.15
2019-03-06T08:54:30.142Z,10.22
2019-03-06T08:55:30.127Z,10.34
2019-03-06T08:56:30.114Z,10.34
2019-03-06T08:57:30.127Z,10.47
2019-03-06T08:58:30.093Z,10.61
2019-03-06T08:59:30.098Z,10.67
2019-03-06T09:00:30.649Z,10.76
2019-03-06T09:01:30.065Z,10.92
2019-03-06T09:02:30.070Z,10.91
2019-03-06T09:03:30.044Z,11.14
2019-03-06T09:04:30.025Z,11.11
2019-03-06T09:05:31.033Z,11.29
2019-03-06T09:06:30.023Z,11.25
2019-03-06T09:07:30.018Z,11.32
2019-03-06T09:08:30.000Z,11.44
2019-03-06T09:09:29.973Z,11.49
2019-03-06T09:10:29.962Z,11.61
2019-03-06T09:11:29.956Z,11.72
2019-03-06T09:12:29.960Z,11.73
2019-03-06T09:13:29.929Z,11.70
2019-03-06T09:14:29.919Z,11.82
2019-03-06T09:15:29.911Z,11.85
2019-03-06T09:16:29.889Z,11.82
2019-03-06T09:17:29.896Z,11.91
2019-03-06T09:18:29.889Z,11.98
2019-03-06T09:19:29.860Z,12.12
2019-03-06T09:20:37.074Z,12.17
2019-03-06T09:21:30.833Z,12.20
2019-03-06T09:22:29.845Z,12.21
2019-03-06T09:23:29.815Z,12.24
2019-03-06T09:24:29.809Z,12.27
2019-03-06T09:25:29.790Z,12.24
2019-03-06T09:26:29.780Z,12.29
2019-03-06T09:27:29.791Z,12.34
2019-03-06T09:28:29.767Z,12.39
2019-03-06T09:29:29.750Z,12.46
2019-03-06T09:30:29.747Z,12.49
2019-03-06T09:31:29.730Z,12.57
2019-03-06T09:32:29.730Z,12.68
2019-03-06T09:33:29.722Z,12.68
2019-03-06T09:34:29.696Z,12.82
2019-03-06T09:35:29.682Z,12.83
2019-03-06T09:36:29.685Z,13.03
2019-03-06T09:37:29.677Z,12.97
2019-03-06T09:38:29.666Z,12.97
2019-03-06T09:39:29.647Z,13.03
2019-03-06T09:40:29.635Z,13.01
2019-03-06T09:41:29.618Z,12.93
2019-03-06T09:42:29.606Z,13.00
2019-03-06T09:43:29.631Z,13.00
2019-03-06T09:44:29.587Z,12.93
2019-03-06T09:45:29.571Z,12.93
2019-03-06T09:46:29.564Z,13.04
2019-03-06T09:47:29.558Z,12.97
2019-03-06T09:48:29.567Z,13.03
2019-03-06T09:49:29.530Z,13.07
2019-03-06T09:50:29.520Z,13.11
2019-03-06T09:51:29.505Z,13.17
2019-03-06T09:52:29.498Z,13.22
2019-03-06T09:53:29.526Z,13.22
2019-03-06T09:54:29.480Z,13.20
2019-03-06T09:55:29.463Z,13.42
2019-03-06T09:56:29.451Z,13.49
2019-03-06T09:57:29.440Z,13.39
2019-03-06T09:58:29.433Z,13.45
2019-03-06T09:59:29.434Z,13.41
2019-03-06T10:00:29.414Z,13.33
2019-03-06T10:01:29.411Z,13.38
2019-03-06T10:02:29.392Z,13.39
2019-03-06T10:03:29.374Z,13.32
2019-03-06T10:04:29.405Z,13.44
2019-03-06T10:05:29.372Z,13.25
2019-03-06T10:06:29.341Z,13.28
2019-03-06T10:07:29.338Z,13.25
2019-03-06T10:08:29.318Z,13.28
2019-03-06T10:09:29.306Z,13.28
2019-03-06T10:10:29.322Z,13.32
2019-03-06T10:11:29.287Z,13.25
2019-03-06T10:12:29.277Z,13.25
2019-03-06T10:13:29.276Z,13.33
2019-03-06T10:14:29.259Z,13.41
2019-03-06T10:15:29.272Z,13.55
2019-03-06T10:16:29.232Z,13.67
2019-03-06T10:17:30.256Z,13.78
2019-03-06T10:18:29.216Z,13.89
2019-03-06T10:19:29.671Z,13.99
2019-03-06T10:20:29.211Z,13.99
2019-03-06T10:21:29.175Z,14.18
2019-03-06T10:22:29.162Z,14.21
2019-03-06T10:23:29.151Z,14.32
2019-03-06T10:24:29.154Z,14.25
2019-03-06T10:25:34.690Z,14.28
2019-03-06T10:26:30.186Z,14.39
2019-03-06T10:27:29.104Z,14.37
2019-03-06T10:28:29.111Z,14.47
2019-03-06T10:29:29.091Z,14.52
2019-03-06T10:30:29.091Z,14.57
2019-03-06T10:31:29.067Z,14.58
2019-03-06T10:32:29.069Z,14.61
2019-03-06T10:33:29.046Z,14.55
2019-03-06T10:34:29.040Z,14.47
2019-03-06T10:35:29.039Z,14.47
2019-03-06T10:36:29.021Z,14.45
2019-03-06T10:37:29.007Z,14.46
2019-03-06T10:38:28.982Z,14.43
2019-03-06T10:39:28.998Z,14.55
2019-03-06T10:40:28.988Z,14.54
2019-03-06T10:41:28.953Z,14.61
2019-03-06T10:42:28.971Z,14.83
2019-03-06T10:43:28.927Z,14.94
2019-03-06T10:44:29.914Z,14.89
2019-03-06T10:45:28.922Z,14.99
2019-03-06T10:46:28.930Z,15.13
2019-03-06T10:47:28.910Z,15.29
2019-03-06T10:48:28.874Z,15.36
2019-03-06T10:49:28.871Z,15.43
2019-03-06T10:50:30.085Z,15.50
2019-03-06T10:51:30.960Z,15.54
2019-03-06T10:52:28.835Z,15.68
2019-03-06T10:53:28.823Z,15.75
2019-03-06T10:54:28.802Z,15.76
2019-03-06T10:55:28.820Z,15.92
2019-03-06T10:56:28.818Z,16.02
2019-03-06T10:57:28.772Z,16.09
2019-03-06T10:58:28.759Z,16.25
2019-03-06T10:59:28.749Z,16.23
2019-03-06T11:00:28.737Z,16.41
2019-03-06T11:01:28.745Z,16.39
2019-03-06T11:02:28.727Z,16.46
2019-03-06T11:03:28.707Z,16.63
2019-03-06T11:04:28.697Z,16.67
2019-03-06T11:05:28.700Z,16.78
2019-03-06T11:06:28.720Z,16.82
2019-03-06T11:07:28.663Z,16.91
2019-03-06T11:08:28.651Z,17.01
2019-03-06T11:09:28.640Z,17.00
2019-03-06T11:10:28.642Z,16.98
2019-03-06T11:11:28.650Z,17.11
2019-03-06T11:12:28.635Z,17.01
2019-03-06T11:13:28.596Z,17.07
2019-03-06T11:14:28.600Z,17.07
2019-03-06T11:15:28.576Z,17.06
2019-03-06T11:16:30.289Z,17.00
2019-03-06T11:17:29.595Z,16.96
2019-03-06T11:18:28.546Z,17.00
2019-03-06T11:19:28.553Z,17.01
2019-03-06T11:20:28.527Z,17.08
2019-03-06T11:21:28.513Z,17.03
2019-03-06T11:22:28.526Z,17.08
2019-03-06T11:23:28.492Z,17.21
2019-03-06T11:24:28.481Z,17.19
2019-03-06T11:25:28.471Z,17.23
2019-03-06T11:26:28.458Z,17.26
2019-03-06T11:27:28.476Z,17.22
2019-03-06T11:28:28.438Z,17.16
2019-03-06T11:29:28.436Z,17.19
2019-03-06T11:30:28.423Z,17.11
2019-03-06T11:31:28.416Z,17.19
2019-03-06T11:32:28.428Z,17.23
2019-03-06T11:33:28.382Z,17.34
2019-03-06T11:34:28.381Z,17.28
2019-03-06T11:35:28.367Z,17.36
2019-03-06T11:36:28.350Z,17.15
2019-03-06T11:37:28.344Z,17.08
2019-03-06T11:38:28.344Z,17.16
2019-03-06T11:39:28.329Z,17.15
2019-03-06T11:40:28.314Z,17.01
2019-03-06T11:41:28.295Z,16.97
2019-03-06T11:42:28.333Z,16.93
2019-03-06T11:43:28.298Z,16.89
2019-03-06T11:44:28.264Z,16.75
2019-03-06T11:45:28.254Z,16.63
2019-03-06T11:46:28.251Z,16.56
2019-03-06T11:47:28.240Z,16.50
2019-03-06T11:48:28.237Z,16.57
2019-03-06T11:49:28.215Z,16.66
2019-03-06T11:50:28.200Z,16.68
2019-03-06T11:51:28.196Z,16.67
2019-03-06T11:52:28.190Z,16.64
2019-03-06T11:53:28.187Z,16.60
2019-03-06T11:54:28.161Z,16.66
2019-03-06T11:55:28.148Z,16.61
2019-03-06T11:56:28.152Z,16.63
2019-03-06T11:57:28.133Z,16.61
2019-03-06T11:58:28.153Z,16.43
2019-03-06T11:59:28.112Z,16.50
2019-03-06T12:00:28.093Z,16.46
2019-03-06T12:01:28.087Z,16.56
2019-03-06T12:02:28.075Z,16.53
2019-03-06T12:03:28.086Z,16.56
2019-03-06T12:04:28.061Z,16.61
2019-03-06T12:05:28.052Z,16.46
2019-03-06T12:06:28.042Z,16.53
2019-03-06T12:07:28.068Z,16.50
2019-03-06T12:08:28.018Z,16.35
2019-03-06T12:09:28.005Z,16.25
2019-03-06T12:10:27.988Z,16.27
2019-03-06T12:11:27.991Z,16.28
2019-03-06T12:12:27.963Z,16.05
2019-03-06T12:13:27.988Z,16.00
2019-03-06T12:14:27.939Z,16.01
2019-03-06T12:15:27.939Z,15.97
2019-03-06T12:16:27.950Z,16.01
2019-03-06T12:17:27.913Z,16.08
2019-03-06T12:18:27.911Z,16.00
2019-03-06T12:19:27.899Z,16.01
2019-03-06T12:20:27.873Z,15.94
2019-03-06T12:21:27.879Z,16.00
2019-03-06T12:22:27.858Z,16.00
2019-03-06T12:23:27.845Z,16.01
2019-03-06T12:24:27.860Z,16.02
2019-03-06T12:25:27.832Z,15.96
2019-03-06T12:26:27.809Z,15.96
2019-03-06T12:27:28.427Z,16.00
2019-03-06T12:28:27.807Z,15.89
2019-03-06T12:29:27.963Z,15.78
2019-03-06T12:30:27.770Z,15.82
2019-03-06T12:31:27.755Z,15.78
2019-03-06T12:32:27.769Z,15.84
2019-03-06T12:33:27.737Z,15.80
2019-03-06T12:34:27.739Z,15.75
2019-03-06T12:35:27.715Z,15.75
2019-03-06T12:36:27.709Z,15.80
2019-03-06T12:37:27.724Z,15.78
2019-03-06T12:38:27.683Z,15.75
2019-03-06T12:39:27.687Z,15.74
2019-03-06T12:40:27.677Z,15.72
2019-03-06T12:41:27.643Z,15.75
2019-03-06T12:42:27.635Z,15.69
2019-03-06T12:43:27.624Z,15.71
2019-03-06T12:44:27.649Z,15.74
2019-03-06T12:45:27.598Z,15.75
2019-03-06T12:46:27.589Z,15.75
2019-03-06T12:47:27.592Z,15.74
2019-03-06T12:48:27.577Z,15.59
2019-03-06T12:49:27.590Z,15.64
2019-03-06T12:50:27.562Z,15.57
2019-03-06T12:51:27.536Z,15.67
2019-03-06T12:52:27.524Z,15.53
2019-03-06T12:53:27.514Z,15.54
2019-03-06T12:54:27.507Z,15.54
2019-03-06T12:55:27.524Z,15.64
2019-03-06T12:56:27.479Z,15.54
2019-03-06T12:57:27.468Z,15.47
2019-03-06T12:58:27.459Z,15.57
2019-03-06T12:59:27.473Z,15.53
2019-03-06T13:00:27.472Z,15.56
2019-03-06T13:01:27.429Z,15.51
2019-03-06T13:02:27.411Z,15.51
2019-03-06T13:03:27.401Z,15.46
2019-03-06T13:04:27.389Z,15.64
2019-03-06T13:05:27.394Z,15.57
2019-03-06T13:06:27.375Z,15.56
2019-03-06T13:07:27.364Z,15.49
2019-03-06T13:08:27.349Z,15.49
2019-03-06T13:09:27.334Z,15.49